createdAt,value
2022-12-29T00:00:35.028Z,5.8
2022-12-29T00:04:34.128Z,6.2
2022-12-29T00:06:36.985Z,6.4
2022-12-29T00:08:34.159Z,6.3
2022-12-29T00:10:34.160Z,6.1
2022-12-29T00:12:34.645Z,6
2022-12-29T00:14:34.137Z,5.9
2022-12-29T00:16:36.786Z,5.8
2022-12-29T00:18:35.466Z,5.8
2022-12-29T00:20:34.176Z,5.9
2022-12-29T00:22:34.552Z,5.8
2022-12-29T00:24:34.603Z,5.8
2022-12-29T00:26:35.460Z,5.8
2022-12-29T00:30:36.961Z,5.8
2022-12-29T00:32:34.616Z,5.9
2022-12-29T00:34:34.167Z,5.9
2022-12-29T00:36:34.203Z,6
2022-12-29T00:38:34.258Z,6
2022-12-29T00:40:34.135Z,5.8
2022-12-29T00:42:40.610Z,5.9
2022-12-29T00:44:34.494Z,5.9
2022-12-29T00:46:34.158Z,6
2022-12-29T00:50:34.169Z,5.9
2022-12-29T00:54:34.131Z,6
2022-12-29T00:56:34.298Z,6
2022-12-29T00:58:36.975Z,6.1
2022-12-29T01:00:37.414Z,6
2022-12-29T01:04:34.170Z,6.2
2022-12-29T01:06:34.635Z,6.2
2022-12-29T01:08:34.149Z,6.2
2022-12-29T01:14:36.966Z,6.3
2022-12-29T01:16:34.151Z,6.2
2022-12-29T01:18:34.156Z,6.2
2022-12-29T01:20:37.375Z,6.4
2022-12-29T01:22:34.171Z,6.3
2022-12-29T01:24:35.482Z,6.3
2022-12-29T01:26:34.543Z,6.4
2022-12-29T01:28:34.549Z,6.4
2022-12-29T01:30:39.898Z,6.4
2022-12-29T01:34:36.973Z,6.4
2022-12-29T01:42:36.971Z,6.6
2022-12-29T01:44:34.528Z,6.6
2022-12-29T01:46:34.821Z,6.6
2022-12-29T01:48:37.273Z,6.7
2022-12-29T01:50:34.132Z,6.8
2022-12-29T01:52:34.167Z,6.7
2022-12-29T01:56:34.150Z,6.8
2022-12-29T01:58:34.141Z,6.9
2022-12-29T02:00:34.710Z,6.9
2022-12-29T02:02:34.274Z,7
2022-12-29T02:04:34.166Z,6.9
2022-12-29T02:06:37.255Z,6.8
2022-12-29T02:08:35.465Z,6.9
2022-12-29T02:10:34.139Z,7
2022-12-29T02:12:34.163Z,6.9
2022-12-29T02:14:37.381Z,7
2022-12-29T02:16:34.681Z,6.9
2022-12-29T02:20:34.656Z,6.9
2022-12-29T02:22:37.374Z,6.7
2022-12-29T02:24:34.187Z,6.7
2022-12-29T02:26:34.696Z,6.7
2022-12-29T02:28:34.882Z,6.7
2022-12-29T02:30:34.861Z,6.6
2022-12-29T02:32:34.177Z,6.6
2022-12-29T02:34:34.706Z,6.6
2022-12-29T02:36:34.538Z,6.5
2022-12-29T02:38:36.979Z,6.5
2022-12-29T02:40:34.579Z,6.4
2022-12-29T02:42:34.134Z,6.5
2022-12-29T02:46:34.161Z,6.5
2022-12-29T02:48:36.980Z,6.4
2022-12-29T02:50:35.463Z,6.4
2022-12-29T02:52:34.173Z,6.4
2022-12-29T02:54:34.183Z,6.5
2022-12-29T02:56:34.146Z,6.5
2022-12-29T02:58:36.986Z,6.4
2022-12-29T03:00:34.631Z,6.5
2022-12-29T03:02:34.314Z,6.6
2022-12-29T03:04:36.736Z,6.6
2022-12-29T03:06:37.241Z,6.5
2022-12-29T03:08:35.471Z,6.6
2022-12-29T03:10:34.169Z,6.7
2022-12-29T03:12:34.272Z,6.7
2022-12-29T03:14:34.192Z,6.9
2022-12-29T03:16:35.547Z,6.9
2022-12-29T03:18:34.171Z,6.9
2022-12-29T03:20:34.195Z,7.1
2022-12-29T03:22:34.176Z,7
2022-12-29T03:24:34.270Z,7
2022-12-29T03:26:37.249Z,7
2022-12-29T03:28:34.141Z,7.2
2022-12-29T03:30:37.445Z,7.2
2022-12-29T03:34:34.185Z,7.2
2022-12-29T03:36:36.768Z,7.3
2022-12-29T03:38:37.388Z,7.4
2022-12-29T03:40:34.866Z,7.3
2022-12-29T03:42:37.008Z,7.4
2022-12-29T03:44:37.431Z,7.6
2022-12-29T03:48:36.706Z,7.8
2022-12-29T03:50:34.921Z,7.8
2022-12-29T03:52:37.399Z,7.8
2022-12-29T03:54:34.217Z,7.7
2022-12-29T03:56:36.991Z,7.7
2022-12-29T03:58:39.025Z,7.7
2022-12-29T04:00:34.696Z,7.6
2022-12-29T04:02:37.621Z,7.8
2022-12-29T04:04:34.157Z,7.8
2022-12-29T04:06:36.984Z,7.7
2022-12-29T04:08:35.593Z,7.8
2022-12-29T04:10:34.182Z,7.7
2022-12-29T04:12:37.824Z,7.8
2022-12-29T04:14:34.149Z,7.8
2022-12-29T04:16:34.598Z,7.8
2022-12-29T04:18:34.168Z,7.7
2022-12-29T04:20:37.953Z,7.6
2022-12-29T04:24:36.986Z,7.6
2022-12-29T04:26:34.234Z,7.7
2022-12-29T04:28:38.983Z,7.8
2022-12-29T04:30:37.429Z,7.9
2022-12-29T04:32:37.409Z,7.7
2022-12-29T04:34:37.344Z,7.8
2022-12-29T04:36:34.175Z,7.7
2022-12-29T04:38:40.373Z,7.6
2022-12-29T04:40:35.491Z,7.7
2022-12-29T04:46:34.263Z,7.8
2022-12-29T04:48:37.367Z,7.7
2022-12-29T04:50:34.175Z,7.9
2022-12-29T04:52:34.925Z,7.8
2022-12-29T04:54:37.406Z,7.8
2022-12-29T04:56:37.126Z,7.9
2022-12-29T04:58:36.782Z,7.8
2022-12-29T05:00:35.561Z,7.9
2022-12-29T05:02:34.389Z,7.9
2022-12-29T05:06:34.173Z,7.9
2022-12-29T05:08:36.797Z,7.9
2022-12-29T05:12:40.165Z,7.9
2022-12-29T05:16:37.478Z,8.1
2022-12-29T05:18:39.892Z,8
2022-12-29T05:20:37.409Z,7.9
2022-12-29T05:22:35.560Z,8
2022-12-29T05:24:34.192Z,8
2022-12-29T05:26:34.242Z,8
2022-12-29T05:30:37.410Z,7.9
2022-12-29T05:32:37.432Z,7.8
2022-12-29T05:36:37.876Z,7.9
2022-12-29T05:38:37.410Z,7.9
2022-12-29T05:40:34.216Z,7.9
2022-12-29T05:42:34.208Z,7.8
2022-12-29T05:44:37.423Z,8
2022-12-29T05:48:38.014Z,8
2022-12-29T05:50:34.194Z,7.9
2022-12-29T05:54:37.385Z,7.9
2022-12-29T05:56:36.994Z,8
2022-12-29T05:58:37.013Z,7.8
2022-12-29T06:00:35.896Z,7.8
2022-12-29T06:02:40.288Z,7.6
2022-12-29T06:04:34.617Z,7.6
2022-12-29T06:06:35.472Z,7.7
2022-12-29T06:08:34.175Z,7.7
2022-12-29T06:10:34.190Z,7.6
2022-12-29T06:12:37.019Z,7.4
2022-12-29T06:14:34.192Z,7.7
2022-12-29T06:16:37.055Z,7.6
2022-12-29T06:20:34.198Z,7.4
2022-12-29T06:22:34.648Z,7.3
2022-12-29T06:24:37.027Z,7.5
2022-12-29T06:26:37.417Z,7.3
2022-12-29T06:28:37.418Z,7.3
2022-12-29T06:30:38.009Z,7.2
2022-12-29T06:32:34.230Z,7.2
2022-12-29T06:34:37.458Z,7.1
2022-12-29T06:36:34.215Z,6.9
2022-12-29T06:40:36.767Z,6.9
2022-12-29T06:44:37.036Z,6.9
2022-12-29T06:46:34.259Z,6.9
2022-12-29T06:48:37.014Z,6.9
2022-12-29T06:50:34.201Z,6.9
2022-12-29T06:52:34.578Z,6.8
2022-12-29T06:54:34.657Z,6.8
2022-12-29T06:56:37.041Z,6.9
2022-12-29T06:58:37.021Z,7
2022-12-29T07:00:37.229Z,7
2022-12-29T07:02:37.739Z,6.9
2022-12-29T07:04:37.036Z,7
2022-12-29T07:06:37.009Z,7
2022-12-29T07:08:34.179Z,7.1
2022-12-29T07:10:37.140Z,7.1
2022-12-29T07:12:34.197Z,7.1
2022-12-29T07:14:39.136Z,7.2
2022-12-29T07:16:34.261Z,7.2
2022-12-29T07:18:37.370Z,7.2
2022-12-29T07:20:34.220Z,7.2
2022-12-29T07:22:34.181Z,7.3
2022-12-29T07:24:34.251Z,7
2022-12-29T07:26:36.398Z,7.1
2022-12-29T07:28:35.549Z,7.2
2022-12-29T07:30:34.221Z,7.3
2022-12-29T07:32:34.669Z,7.3
2022-12-29T07:34:34.187Z,7.4
2022-12-29T07:36:40.665Z,7.5
2022-12-29T07:38:40.437Z,7.4
2022-12-29T07:40:34.209Z,7.5
2022-12-29T07:42:34.243Z,7.6
2022-12-29T07:44:37.017Z,7.7
2022-12-29T07:46:53.571Z,7.8
2022-12-29T07:48:34.181Z,7.9
2022-12-29T07:50:34.181Z,7.7
2022-12-29T07:52:37.326Z,7.8
2022-12-29T07:54:34.206Z,7.8
2022-12-29T07:58:34.215Z,7.9
2022-12-29T08:00:37.071Z,8
2022-12-29T08:02:34.947Z,8.1
2022-12-29T08:04:37.845Z,8.2
2022-12-29T08:06:34.608Z,8.3
2022-12-29T08:08:35.488Z,8.2
2022-12-29T08:12:34.812Z,8.4
2022-12-29T08:14:34.207Z,8.4
2022-12-29T08:16:34.693Z,8.5
2022-12-29T08:20:34.579Z,8.6
2022-12-29T08:22:34.195Z,8.6
2022-12-29T08:26:34.219Z,8.7
2022-12-29T08:28:34.240Z,8.7
2022-12-29T08:30:35.491Z,8.7
2022-12-29T08:32:35.055Z,8.7
2022-12-29T08:34:34.220Z,8.7
2022-12-29T08:36:34.608Z,8.7
2022-12-29T08:38:35.479Z,8.7
2022-12-29T08:40:34.230Z,8.7
2022-12-29T08:42:34.641Z,8.7
2022-12-29T08:44:34.234Z,8.8
2022-12-29T08:46:34.307Z,8.7
2022-12-29T08:48:34.646Z,8.8
2022-12-29T08:52:34.196Z,8.8
2022-12-29T08:54:40.275Z,8.8
2022-12-29T08:56:41.775Z,8.8
2022-12-29T09:00:37.022Z,8.8
2022-12-29T09:02:37.709Z,8.8
2022-12-29T09:04:37.595Z,8.9
2022-12-29T09:06:40.109Z,8.9
2022-12-29T09:08:34.205Z,8.9
2022-12-29T09:10:37.075Z,8.9
2022-12-29T09:12:36.494Z,8.9
2022-12-29T09:14:37.021Z,8.9
2022-12-29T09:16:34.765Z,9
2022-12-29T09:18:34.905Z,9
2022-12-29T09:20:34.224Z,9
2022-12-29T09:22:34.249Z,8.9
2022-12-29T09:24:44.219Z,9
2022-12-29T09:26:34.191Z,9
2022-12-29T09:28:34.214Z,9
2022-12-29T09:30:40.180Z,9
2022-12-29T09:34:37.655Z,9
2022-12-29T09:36:37.419Z,9.1
2022-12-29T09:38:34.201Z,9.1
2022-12-29T09:40:40.903Z,9.1
2022-12-29T09:42:34.611Z,9.1
2022-12-29T09:46:34.312Z,9.2
2022-12-29T09:48:37.239Z,9.2
2022-12-29T09:50:34.633Z,9.2
2022-12-29T09:52:34.192Z,9.3
2022-12-29T09:54:34.688Z,9.3
2022-12-29T09:58:34.209Z,9.3
2022-12-29T10:00:34.250Z,9.4
2022-12-29T10:02:37.261Z,9.4
2022-12-29T10:04:34.647Z,9.4
2022-12-29T10:08:34.208Z,9.4
2022-12-29T10:10:34.626Z,9.5
2022-12-29T10:12:34.212Z,9.5
2022-12-29T10:14:34.251Z,9.5
2022-12-29T10:16:43.698Z,9.5
2022-12-29T10:18:34.921Z,9.6
2022-12-29T10:20:34.210Z,9.6
2022-12-29T10:22:34.930Z,9.7
2022-12-29T10:24:34.563Z,9.7
2022-12-29T10:26:34.215Z,9.7
2022-12-29T10:30:34.222Z,9.8
2022-12-29T10:32:34.217Z,9.8
2022-12-29T10:36:34.206Z,9.8
2022-12-29T10:38:40.412Z,9.8
2022-12-29T10:40:34.233Z,9.8
2022-12-29T10:44:34.200Z,9.9
2022-12-29T10:46:34.701Z,9.9
2022-12-29T10:48:37.441Z,9.9
2022-12-29T10:50:37.436Z,10
2022-12-29T10:52:37.423Z,10
2022-12-29T10:54:34.316Z,10
2022-12-29T10:56:34.284Z,10
2022-12-29T11:00:34.258Z,10.1
2022-12-29T11:02:34.304Z,10.1
2022-12-29T11:04:34.229Z,10.2
2022-12-29T11:06:34.319Z,10.2
2022-12-29T11:08:34.338Z,10.2
2022-12-29T11:10:34.330Z,10.3
2022-12-29T11:12:35.627Z,10.3
2022-12-29T11:14:37.430Z,10.3
2022-12-29T11:16:43.830Z,10.4
2022-12-29T11:18:40.199Z,10.4
2022-12-29T11:20:34.911Z,10.4
2022-12-29T11:22:37.025Z,10.5
2022-12-29T11:24:34.216Z,10.5
2022-12-29T11:26:34.923Z,10.5
2022-12-29T11:30:34.220Z,10.6
2022-12-29T11:32:34.201Z,10.6
2022-12-29T11:36:34.793Z,10.5
2022-12-29T11:38:37.075Z,10.5
2022-12-29T11:40:34.551Z,10.5
2022-12-29T11:42:34.222Z,10.5
2022-12-29T11:44:34.680Z,10.5
2022-12-29T11:46:34.361Z,10.5
2022-12-29T11:48:34.347Z,10.5
2022-12-29T11:50:35.160Z,10.5
2022-12-29T11:52:34.347Z,10.6
2022-12-29T11:54:36.152Z,10.6
2022-12-29T11:56:40.068Z,10.6
2022-12-29T11:58:34.512Z,10.5
2022-12-29T12:00:37.723Z,10.5
2022-12-29T12:02:40.440Z,10.5
2022-12-29T12:04:38.085Z,10.5
2022-12-29T12:06:34.345Z,10.5
2022-12-29T12:08:34.218Z,10.5
2022-12-29T12:10:37.143Z,10.5
2022-12-29T12:12:36.818Z,10.5
2022-12-29T12:14:34.228Z,10.5
2022-12-29T12:18:34.657Z,10.5
2022-12-29T12:20:34.998Z,10.5
2022-12-29T12:22:37.105Z,10.5
2022-12-29T12:24:34.234Z,10.5
2022-12-29T12:26:34.216Z,10.5
2022-12-29T12:28:36.695Z,10.5
2022-12-29T12:32:34.359Z,10.5
2022-12-29T12:34:34.343Z,10.5
2022-12-29T12:36:34.214Z,10.5
2022-12-29T12:38:34.736Z,10.5
2022-12-29T12:40:34.330Z,10.5
2022-12-29T12:42:34.329Z,10.5
2022-12-29T12:44:34.377Z,10.5
2022-12-29T12:46:35.112Z,10.6
2022-12-29T12:48:34.335Z,10.6
2022-12-29T12:50:34.257Z,10.6
2022-12-29T12:52:35.530Z,10.6
2022-12-29T12:54:34.227Z,10.6
2022-12-29T12:56:34.232Z,10.5
2022-12-29T12:58:34.237Z,10.5
2022-12-29T13:00:34.610Z,10.6
2022-12-29T13:02:35.088Z,10.6
2022-12-29T13:04:34.265Z,10.6
2022-12-29T13:06:34.211Z,10.5
2022-12-29T13:08:34.675Z,10.5
2022-12-29T13:12:40.453Z,10.5
2022-12-29T13:14:34.208Z,10.6
2022-12-29T13:16:34.273Z,10.6
2022-12-29T13:18:34.701Z,10.6
2022-12-29T13:20:34.326Z,10.6
2022-12-29T13:22:34.457Z,10.6
2022-12-29T13:24:34.336Z,10.6
2022-12-29T13:26:35.085Z,10.6
2022-12-29T13:28:34.364Z,10.6
2022-12-29T13:30:37.932Z,10.6
2022-12-29T13:32:34.228Z,10.6
2022-12-29T13:34:37.067Z,10.6
2022-12-29T13:36:34.221Z,10.5
2022-12-29T13:38:34.251Z,10.6
2022-12-29T13:40:34.251Z,10.6
2022-12-29T13:42:35.555Z,10.6
2022-12-29T13:44:36.559Z,10.6
2022-12-29T13:46:37.475Z,10.6
2022-12-29T13:48:34.218Z,10.6
2022-12-29T13:50:34.232Z,10.6
2022-12-29T13:52:34.211Z,10.6
2022-12-29T13:54:37.035Z,10.6
2022-12-29T13:56:35.579Z,10.6
2022-12-29T13:58:37.421Z,10.6
2022-12-29T14:00:34.250Z,10.6
2022-12-29T14:02:37.624Z,10.5
2022-12-29T14:04:34.304Z,10.5
2022-12-29T14:06:40.776Z,10.5
2022-12-29T14:10:37.093Z,10.5
2022-12-29T14:12:34.216Z,10.5
2022-12-29T14:14:35.013Z,10.5
2022-12-29T14:16:35.074Z,10.5
2022-12-29T14:18:34.279Z,10.5
2022-12-29T14:20:34.351Z,10.5
2022-12-29T14:22:34.627Z,10.5
2022-12-29T14:24:34.233Z,10.5
2022-12-29T14:26:37.487Z,10.5
2022-12-29T14:28:34.225Z,10.5
2022-12-29T14:30:34.239Z,10.4
2022-12-29T14:32:34.228Z,10.4
2022-12-29T14:34:37.489Z,10.4
2022-12-29T14:36:34.725Z,10.4
2022-12-29T14:38:34.346Z,10.4
2022-12-29T14:40:34.322Z,10.5
2022-12-29T14:42:37.486Z,10.4
2022-12-29T14:44:34.216Z,10.4
2022-12-29T14:46:34.240Z,10.4
2022-12-29T14:48:34.265Z,10.4
2022-12-29T14:52:34.335Z,10.3
2022-12-29T14:54:34.375Z,10.3
2022-12-29T14:56:34.335Z,10.4
2022-12-29T14:58:35.099Z,10.2
2022-12-29T15:00:34.304Z,10.2
2022-12-29T15:02:37.904Z,10.3
2022-12-29T15:04:34.291Z,10.2
2022-12-29T15:06:34.259Z,10.2
2022-12-29T15:08:34.236Z,10.2
2022-12-29T15:10:35.139Z,10.1
2022-12-29T15:12:41.004Z,10
2022-12-29T15:14:34.276Z,10
2022-12-29T15:16:34.301Z,9.9
2022-12-29T15:18:34.251Z,10
2022-12-29T15:20:35.576Z,9.8
2022-12-29T15:22:40.549Z,9.8
2022-12-29T15:24:38.009Z,10
2022-12-29T15:26:34.708Z,9.9
2022-12-29T15:28:34.259Z,9.9
2022-12-29T15:30:35.024Z,9.9
2022-12-29T15:32:37.410Z,9.7
2022-12-29T15:34:34.271Z,9.7
2022-12-29T15:36:34.700Z,9.6
2022-12-29T15:38:40.294Z,9.6
2022-12-29T15:42:34.345Z,9.4
2022-12-29T15:44:34.386Z,9.5
2022-12-29T15:46:34.359Z,9.5
2022-12-29T15:48:34.252Z,9.6
2022-12-29T15:50:37.177Z,9.5
2022-12-29T15:52:34.260Z,9.5
2022-12-29T15:56:34.371Z,9.6
2022-12-29T15:58:34.682Z,9.6
2022-12-29T16:02:34.941Z,9.6
2022-12-29T16:04:48.344Z,9.7
2022-12-29T16:06:34.723Z,9.6
2022-12-29T16:08:37.439Z,9.6
2022-12-29T16:10:34.965Z,9.6
2022-12-29T16:12:34.239Z,9.6
2022-12-29T16:14:35.093Z,9.6
2022-12-29T16:16:34.379Z,9.7
2022-12-29T16:18:35.078Z,9.7
2022-12-29T16:20:34.371Z,9.6
2022-12-29T16:22:37.363Z,9.6
2022-12-29T16:24:34.336Z,9.6
2022-12-29T16:28:34.337Z,9.8
2022-12-29T16:30:34.928Z,9.7
2022-12-29T16:32:34.356Z,9.6
2022-12-29T16:34:34.356Z,9.6
2022-12-29T16:36:34.435Z,9.8
2022-12-29T16:40:47.102Z,9.6
2022-12-29T16:42:50.776Z,9.6
2022-12-29T16:44:44.375Z,9.7
2022-12-29T16:46:41.182Z,9.6
2022-12-29T16:50:44.851Z,9.7
2022-12-29T16:52:45.293Z,9.7
2022-12-29T16:54:41.248Z,9.6
2022-12-29T16:56:45.240Z,9.6
2022-12-29T16:58:42.677Z,9.7
2022-12-29T17:00:42.813Z,9.7
2022-12-29T17:02:44.179Z,9.6
2022-12-29T17:04:43.503Z,9.6
2022-12-29T17:06:43.848Z,9.7
2022-12-29T17:08:41.090Z,9.6
2022-12-29T17:10:42.584Z,9.7
2022-12-29T17:12:45.429Z,9.6
2022-12-29T17:14:42.682Z,9.7
2022-12-29T17:16:43.291Z,9.7
2022-12-29T17:18:45.727Z,9.7
2022-12-29T17:20:46.285Z,9.8
2022-12-29T17:22:41.136Z,9.8
2022-12-29T17:24:46.072Z,9.7
2022-12-29T17:26:40.482Z,9.8
2022-12-29T17:28:42.987Z,9.8
2022-12-29T17:30:45.337Z,9.7
2022-12-29T17:32:40.869Z,9.7
2022-12-29T17:34:43.597Z,9.7
2022-12-29T17:36:45.055Z,9.7
2022-12-29T17:38:40.934Z,9.7
2022-12-29T17:40:43.970Z,9.6
2022-12-29T17:42:45.003Z,9.5
2022-12-29T17:44:43.007Z,9.5
2022-12-29T17:46:44.335Z,9.3
2022-12-29T17:48:49.706Z,9.3
2022-12-29T17:50:45.413Z,9.2
2022-12-29T17:52:45.237Z,9.2
2022-12-29T17:54:45.247Z,9.4
2022-12-29T17:56:42.593Z,9.4
2022-12-29T17:58:41.253Z,9.1
2022-12-29T18:00:45.160Z,9
2022-12-29T18:02:42.774Z,9.1
2022-12-29T18:04:45.588Z,9
2022-12-29T18:06:42.824Z,9.2
2022-12-29T18:08:43.967Z,9.2
2022-12-29T18:10:46.234Z,9.1
2022-12-29T18:12:42.539Z,9
2022-12-29T18:14:43.508Z,9.2
2022-12-29T18:16:43.129Z,9.2
2022-12-29T18:18:41.237Z,9.1
2022-12-29T18:20:42.775Z,9
2022-12-29T18:22:41.151Z,9.1
2022-12-29T18:24:44.257Z,9
2022-12-29T18:26:43.119Z,9
2022-12-29T18:28:40.846Z,8.9
2022-12-29T18:30:44.851Z,8.7
2022-12-29T18:32:42.635Z,8.9
2022-12-29T18:34:42.983Z,9
2022-12-29T18:36:41.600Z,8.9
2022-12-29T18:38:45.261Z,8.9
2022-12-29T18:40:45.546Z,9
2022-12-29T18:42:44.811Z,9
2022-12-29T18:44:42.316Z,9
2022-12-29T18:46:44.552Z,9
2022-12-29T18:48:42.988Z,9
2022-12-29T18:50:42.332Z,9.1
2022-12-29T18:52:44.774Z,9
2022-12-29T18:54:44.520Z,9.1
2022-12-29T18:56:43.906Z,8.9
2022-12-29T18:58:45.353Z,9
2022-12-29T19:00:44.969Z,9
2022-12-29T19:02:44.433Z,9
2022-12-29T19:04:46.863Z,8.9
2022-12-29T19:06:45.348Z,9
2022-12-29T19:08:42.943Z,8.9
2022-12-29T19:10:45.501Z,8.9
2022-12-29T19:12:45.911Z,8.9
2022-12-29T19:14:45.373Z,9
2022-12-29T19:16:40.916Z,9
2022-12-29T19:18:45.663Z,9
2022-12-29T19:20:45.149Z,8.8
2022-12-29T19:22:44.918Z,8.7
2022-12-29T19:24:44.334Z,8.7
2022-12-29T19:26:45.447Z,8.7
2022-12-29T19:28:41.273Z,8.7
2022-12-29T19:30:42.562Z,8.8
2022-12-29T19:32:42.645Z,8.7
2022-12-29T19:34:43.963Z,8.7
2022-12-29T19:36:45.260Z,8.8
2022-12-29T19:38:43.530Z,8.8
2022-12-29T19:40:44.319Z,8.9
2022-12-29T19:42:42.773Z,8.8
2022-12-29T19:44:44.999Z,8.8
2022-12-29T19:46:44.016Z,8.7
2022-12-29T19:48:44.618Z,8.7
2022-12-29T19:50:42.453Z,8.9
2022-12-29T19:52:43.238Z,8.8
2022-12-29T19:54:43.546Z,8.8
2022-12-29T19:56:45.655Z,8.8
2022-12-29T19:58:45.422Z,8.8
2022-12-29T20:00:44.568Z,8.9
2022-12-29T20:02:45.595Z,8.8
2022-12-29T20:04:42.640Z,8.9
2022-12-29T20:06:41.640Z,8.9
2022-12-29T20:08:43.227Z,8.9
2022-12-29T20:10:49.303Z,8.7
2022-12-29T20:12:43.594Z,8.8
2022-12-29T20:14:44.325Z,8.9
2022-12-29T20:17:02.737Z,8.9
2022-12-29T20:18:43.856Z,8.8
2022-12-29T20:20:46.208Z,8.8
2022-12-29T20:22:45.308Z,8.8
2022-12-29T20:24:46.821Z,8.8
2022-12-29T20:26:42.643Z,8.8
2022-12-29T20:28:42.728Z,8.8
2022-12-29T20:30:41.237Z,8.8
2022-12-29T20:32:41.331Z,8.7
2022-12-29T20:34:41.256Z,8.8
2022-12-29T20:36:44.894Z,8.9
2022-12-29T20:38:43.559Z,8.8
2022-12-29T20:40:46.519Z,8.8
2022-12-29T20:42:43.585Z,8.8
2022-12-29T20:46:44.082Z,8.8
2022-12-29T20:48:44.907Z,8.6
2022-12-29T20:50:42.747Z,8.7
2022-12-29T20:52:43.769Z,8.7
2022-12-29T20:54:40.926Z,8.6
2022-12-29T20:59:17.477Z,8.4
2022-12-29T21:00:43.251Z,8.5
2022-12-29T21:02:43.995Z,8.5
2022-12-29T21:05:13.341Z,8.4
2022-12-29T21:06:42.772Z,8.6
2022-12-29T21:08:44.441Z,8.5
2022-12-29T21:10:43.607Z,8.5
2022-12-29T21:12:45.849Z,8.4
2022-12-29T21:14:45.725Z,8.5
2022-12-29T21:16:41.411Z,8.6
2022-12-29T21:18:43.176Z,8.5
2022-12-29T21:20:45.829Z,8.5
2022-12-29T21:22:43.577Z,8.5
2022-12-29T21:24:41.029Z,8.5
2022-12-29T21:26:44.424Z,8.5
2022-12-29T21:28:45.216Z,8.5
2022-12-29T21:30:42.579Z,8.4
2022-12-29T21:32:43.507Z,8.4
2022-12-29T21:34:43.413Z,8.4
2022-12-29T21:36:44.084Z,8.4
2022-12-29T21:38:42.656Z,8.4
2022-12-29T21:40:46.089Z,8.3
2022-12-29T21:42:43.108Z,8.2
2022-12-29T21:44:43.618Z,8.1
2022-12-29T21:46:43.703Z,8
2022-12-29T21:48:44.852Z,8
2022-12-29T21:50:45.722Z,8
2022-12-29T21:54:44.920Z,7.9
2022-12-29T21:56:44.995Z,7.9
2022-12-29T22:00:43.037Z,7.8
2022-12-29T22:02:43.942Z,7.8
2022-12-29T22:04:41.289Z,7.7
2022-12-29T22:06:44.346Z,7.7
2022-12-29T22:10:43.136Z,7.7
2022-12-29T22:12:44.926Z,7.6
2022-12-29T22:14:46.047Z,7.6
2022-12-29T22:16:42.794Z,7.7
2022-12-29T22:18:44.877Z,7.6
2022-12-29T22:20:43.690Z,7.6
2022-12-29T22:22:43.532Z,7.5
2022-12-29T22:24:45.404Z,7.5
2022-12-29T22:26:43.542Z,7.4
2022-12-29T22:28:41.340Z,7.4
2022-12-29T22:30:43.973Z,7.3
2022-12-29T22:32:44.983Z,7.4
2022-12-29T22:34:41.384Z,7.3
2022-12-29T22:36:42.669Z,7.3
2022-12-29T22:38:42.701Z,7.2
2022-12-29T22:40:41.355Z,7.2
2022-12-29T22:42:45.945Z,7.2
2022-12-29T22:44:46.615Z,7.1
2022-12-29T22:46:41.374Z,7
2022-12-29T22:48:43.944Z,7
2022-12-29T22:50:43.915Z,6.8
2022-12-29T22:52:47.956Z,6.7
2022-12-29T22:54:44.402Z,6.7
2022-12-29T22:56:41.353Z,6.7
2022-12-29T22:58:42.696Z,6.6
2022-12-29T23:00:41.398Z,6.6
2022-12-29T23:02:45.144Z,6.6
2022-12-29T23:05:03.296Z,6.5
2022-12-29T23:06:45.492Z,6.5
2022-12-29T23:08:43.273Z,6.5
2022-12-29T23:12:43.059Z,6.4
2022-12-29T23:14:44.112Z,6.4
2022-12-29T23:16:44.682Z,6.3
2022-12-29T23:18:42.672Z,6.3
2022-12-29T23:20:45.351Z,6.3
2022-12-29T23:22:41.334Z,6.3
2022-12-29T23:24:45.844Z,6.3
2022-12-29T23:26:42.721Z,6.3
2022-12-29T23:28:45.171Z,6.3
2022-12-29T23:30:41.414Z,6.2
2022-12-29T23:32:43.658Z,6.3
2022-12-29T23:34:46.004Z,6.2
2022-12-29T23:36:42.747Z,6.1
2022-12-29T23:38:43.571Z,6.1
2022-12-29T23:40:44.282Z,6.1
2022-12-29T23:42:45.440Z,6.1
2022-12-29T23:46:44.748Z,6
2022-12-29T23:48:44.474Z,6
2022-12-29T23:50:43.202Z,6
2022-12-29T23:52:42.694Z,5.9
2022-12-29T23:54:44.730Z,5.9
2022-12-29T23:56:44.649Z,5.8
2022-12-29T23:58:43.735Z,5.8
